sensor_id;sensor_type;location;lat;lon;timestamp;pressure;altitude;pressure_sealevel;temperature;humidity
26531;BME280;14201;43.188;24.160;2023-03-26T00:01:26;99092.66;;;13.40;84.72
26531;BME280;14201;43.188;24.160;2023-03-26T00:03:54;99122.78;;;13.62;84.84
26531;BME280;14201;43.188;24.160;2023-03-26T00:06:27;99108.44;;;13.45;85.90
26531;BME280;14201;43.188;24.160;2023-03-26T00:08:55;99104.81;;;13.39;86.16
26531;BME280;14201;43.188;24.160;2023-03-26T00:11:23;99106.53;;;13.37;86.34
26531;BME280;14201;43.188;24.160;2023-03-26T00:13:49;99104.72;;;13.35;85.92
26531;BME280;14201;43.188;24.160;2023-03-26T00:16:18;99100.88;;;13.19;87.06
26531;BME280;14201;43.188;24.160;2023-03-26T00:18:45;99092.94;;;13.14;84.94
26531;BME280;14201;43.188;24.160;2023-03-26T00:21:14;99094.03;;;13.26;84.21
26531;BME280;14201;43.188;24.160;2023-03-26T00:23:40;99097.34;;;13.17;85.10
26531;BME280;14201;43.188;24.160;2023-03-26T00:26:06;99085.94;;;13.15;85.65
26531;BME280;14201;43.188;24.160;2023-03-26T00:28:39;99091.28;;;13.19;84.88
26531;BME280;14201;43.188;24.160;2023-03-26T00:31:08;99092.75;;;13.07;85.17
26531;BME280;14201;43.188;24.160;2023-03-26T00:33:34;99086.59;;;13.05;84.94
26531;BME280;14201;43.188;24.160;2023-03-26T00:36:15;99093.22;;;12.90;85.77
26531;BME280;14201;43.188;24.160;2023-03-26T00:38:42;99081.78;;;12.87;85.77
26531;BME280;14201;43.188;24.160;2023-03-26T00:41:14;99088.91;;;12.92;85.33
26531;BME280;14201;43.188;24.160;2023-03-26T00:43:48;99082.56;;;12.83;86.29
26531;BME280;14201;43.188;24.160;2023-03-26T00:46:14;99083.84;;;12.64;85.69
26531;BME280;14201;43.188;24.160;2023-03-26T00:48:41;99079.78;;;12.75;86.41
26531;BME280;14201;43.188;24.160;2023-03-26T00:51:08;99088.06;;;12.93;84.52
26531;BME280;14201;43.188;24.160;2023-03-26T00:53:34;99094.19;;;12.94;84.38
26531;BME280;14201;43.188;24.160;2023-03-26T00:56:04;99090.69;;;12.93;83.58
26531;BME280;14201;43.188;24.160;2023-03-26T00:58:30;99078.81;;;12.70;83.01
26531;BME280;14201;43.188;24.160;2023-03-26T01:01:00;99084.03;;;12.70;82.31
26531;BME280;14201;43.188;24.160;2023-03-26T01:03:31;99083.44;;;12.82;81.02
26531;BME280;14201;43.188;24.160;2023-03-26T01:06:02;99070.16;;;12.72;80.62
26531;BME280;14201;43.188;24.160;2023-03-26T01:08:42;99078.94;;;12.76;79.71
26531;BME280;14201;43.188;24.160;2023-03-26T01:11:19;99079.16;;;12.50;80.81
26531;BME280;14201;43.188;24.160;2023-03-26T01:14:15;99080.31;;;12.61;80.43
26531;BME280;14201;43.188;24.160;2023-03-26T01:17:03;99093.19;;;12.54;80.46
26531;BME280;14201;43.188;24.160;2023-03-26T01:22:13;99091.00;;;12.71;78.89
26531;BME280;14201;43.188;24.160;2023-03-26T01:24:40;99080.84;;;12.83;77.55
26531;BME280;14201;43.188;24.160;2023-03-26T01:38:21;99110.59;;;12.88;77.26
26531;BME280;14201;43.188;24.160;2023-03-26T01:43:38;99104.53;;;12.89;76.82
26531;BME280;14201;43.188;24.160;2023-03-26T01:46:10;99082.38;;;12.75;76.45
26531;BME280;14201;43.188;24.160;2023-03-26T01:48:40;99107.16;;;12.89;75.77
26531;BME280;14201;43.188;24.160;2023-03-26T01:51:07;99111.41;;;12.86;75.20
26531;BME280;14201;43.188;24.160;2023-03-26T01:53:37;99109.41;;;12.75;75.55
26531;BME280;14201;43.188;24.160;2023-03-26T01:59:04;99105.00;;;12.73;74.78
26531;BME280;14201;43.188;24.160;2023-03-26T02:01:31;99111.03;;;12.70;76.21
26531;BME280;14201;43.188;24.160;2023-03-26T02:04:10;99110.31;;;12.76;75.93
26531;BME280;14201;43.188;24.160;2023-03-26T02:06:50;99112.97;;;12.79;76.04
26531;BME280;14201;43.188;24.160;2023-03-26T02:09:24;99113.94;;;12.83;75.28
26531;BME280;14201;43.188;24.160;2023-03-26T02:11:53;99111.31;;;12.83;75.20
26531;BME280;14201;43.188;24.160;2023-03-26T02:14:20;99110.50;;;12.85;75.82
26531;BME280;14201;43.188;24.160;2023-03-26T02:16:45;99123.66;;;12.88;75.62
26531;BME280;14201;43.188;24.160;2023-03-26T02:19:13;99119.44;;;12.93;75.20
26531;BME280;14201;43.188;24.160;2023-03-26T02:21:47;99116.56;;;12.83;75.18
26531;BME280;14201;43.188;24.160;2023-03-26T02:24:17;99119.94;;;12.78;74.78
26531;BME280;14201;43.188;24.160;2023-03-26T02:26:43;99124.44;;;12.84;73.34
26531;BME280;14201;43.188;24.160;2023-03-26T02:29:09;99111.91;;;12.71;73.66
26531;BME280;14201;43.188;24.160;2023-03-26T02:31:35;99126.81;;;12.75;73.86
26531;BME280;14201;43.188;24.160;2023-03-26T02:34:01;99133.78;;;12.74;73.23
26531;BME280;14201;43.188;24.160;2023-03-26T02:36:26;99126.97;;;12.81;73.15
26531;BME280;14201;43.188;24.160;2023-03-26T02:38:53;99130.28;;;12.75;72.90
26531;BME280;14201;43.188;24.160;2023-03-26T02:41:20;99133.97;;;12.82;73.43
26531;BME280;14201;43.188;24.160;2023-03-26T02:43:45;99134.59;;;12.73;74.04
26531;BME280;14201;43.188;24.160;2023-03-26T02:46:11;99127.91;;;12.85;73.80
26531;BME280;14201;43.188;24.160;2023-03-26T02:48:37;99129.47;;;12.76;74.07
26531;BME280;14201;43.188;24.160;2023-03-26T02:51:04;99105.13;;;12.79;74.40
26531;BME280;14201;43.188;24.160;2023-03-26T02:53:31;99120.81;;;12.79;74.21
26531;BME280;14201;43.188;24.160;2023-03-26T02:55:58;99126.91;;;12.78;73.49
26531;BME280;14201;43.188;24.160;2023-03-26T02:58:25;99127.47;;;12.66;73.57
26531;BME280;14201;43.188;24.160;2023-03-26T03:00:52;99133.47;;;12.62;73.53
26531;BME280;14201;43.188;24.160;2023-03-26T03:03:25;99139.53;;;12.61;73.13
26531;BME280;14201;43.188;24.160;2023-03-26T03:05:52;99139.47;;;12.59;72.15
26531;BME280;14201;43.188;24.160;2023-03-26T03:08:23;99145.56;;;12.58;72.18
26531;BME280;14201;43.188;24.160;2023-03-26T03:10:56;99138.25;;;12.45;72.49
26531;BME280;14201;43.188;24.160;2023-03-26T03:13:22;99159.41;;;12.54;71.89
26531;BME280;14201;43.188;24.160;2023-03-26T03:15:48;99150.84;;;12.61;71.26
26531;BME280;14201;43.188;24.160;2023-03-26T03:18:13;99158.63;;;12.58;71.70
26531;BME280;14201;43.188;24.160;2023-03-26T03:20:39;99133.94;;;12.47;71.24
26531;BME280;14201;43.188;24.160;2023-03-26T03:23:05;99153.16;;;12.49;71.61
26531;BME280;14201;43.188;24.160;2023-03-26T03:25:31;99154.91;;;12.49;70.75
26531;BME280;14201;43.188;24.160;2023-03-26T03:27:58;99158.22;;;12.43;71.19
26531;BME280;14201;43.188;24.160;2023-03-26T03:30:24;99150.97;;;12.33;71.96
26531;BME280;14201;43.188;24.160;2023-03-26T03:32:50;99154.59;;;12.38;72.09
26531;BME280;14201;43.188;24.160;2023-03-26T03:35:15;99163.09;;;12.31;71.58
26531;BME280;14201;43.188;24.160;2023-03-26T03:37:41;99143.81;;;12.26;71.78
26531;BME280;14201;43.188;24.160;2023-03-26T03:40:09;99167.44;;;12.30;72.33
26531;BME280;14201;43.188;24.160;2023-03-26T03:42:37;99152.53;;;11.94;72.50
26531;BME280;14201;43.188;24.160;2023-03-26T03:45:04;99164.75;;;12.27;72.11
26531;BME280;14201;43.188;24.160;2023-03-26T03:47:30;99165.41;;;12.20;72.25
26531;BME280;14201;43.188;24.160;2023-03-26T03:49:56;99149.88;;;12.25;71.91
26531;BME280;14201;43.188;24.160;2023-03-26T03:52:25;99163.28;;;12.37;72.53
26531;BME280;14201;43.188;24.160;2023-03-26T03:54:53;99163.09;;;12.31;72.81
26531;BME280;14201;43.188;24.160;2023-03-26T03:57:18;99151.72;;;12.29;72.20
26531;BME280;14201;43.188;24.160;2023-03-26T03:59:47;99155.47;;;12.38;72.43
26531;BME280;14201;43.188;24.160;2023-03-26T04:02:12;99144.91;;;12.34;71.51
26531;BME280;14201;43.188;24.160;2023-03-26T04:04:38;99161.59;;;12.39;71.65
26531;BME280;14201;43.188;24.160;2023-03-26T04:07:04;99170.25;;;12.38;71.97
26531;BME280;14201;43.188;24.160;2023-03-26T04:09:30;99180.63;;;12.35;71.37
26531;BME280;14201;43.188;24.160;2023-03-26T04:11:56;99183.06;;;12.29;71.35
26531;BME280;14201;43.188;24.160;2023-03-26T04:14:21;99190.94;;;12.30;71.96
26531;BME280;14201;43.188;24.160;2023-03-26T04:16:47;99178.94;;;12.37;70.77
26531;BME280;14201;43.188;24.160;2023-03-26T04:19:15;99207.69;;;12.37;70.65
26531;BME280;14201;43.188;24.160;2023-03-26T04:21:41;99210.78;;;12.24;71.09
26531;BME280;14201;43.188;24.160;2023-03-26T04:24:08;99216.56;;;12.13;72.05
26531;BME280;14201;43.188;24.160;2023-03-26T04:26:34;99220.91;;;12.13;72.21
26531;BME280;14201;43.188;24.160;2023-03-26T04:29:03;99227.84;;;12.12;72.10
26531;BME280;14201;43.188;24.160;2023-03-26T04:31:29;99224.34;;;11.83;72.45
26531;BME280;14201;43.188;24.160;2023-03-26T04:34:03;99225.13;;;11.80;72.66
26531;BME280;14201;43.188;24.160;2023-03-26T04:36:30;99229.25;;;11.45;73.84
26531;BME280;14201;43.188;24.160;2023-03-26T04:39:00;99236.69;;;11.60;73.60
26531;BME280;14201;43.188;24.160;2023-03-26T04:41:27;99247.66;;;11.50;74.10
26531;BME280;14201;43.188;24.160;2023-03-26T04:43:54;99242.88;;;11.36;73.59
26531;BME280;14201;43.188;24.160;2023-03-26T04:46:22;99255.50;;;11.50;73.42
26531;BME280;14201;43.188;24.160;2023-03-26T04:48:48;99255.63;;;11.27;74.58
26531;BME280;14201;43.188;24.160;2023-03-26T04:51:15;99273.00;;;11.27;74.99
26531;BME280;14201;43.188;24.160;2023-03-26T04:53:51;99263.00;;;11.40;74.69
26531;BME280;14201;43.188;24.160;2023-03-26T04:58:51;99282.41;;;11.23;74.80
26531;BME280;14201;43.188;24.160;2023-03-26T05:01:21;99283.19;;;11.46;74.16
26531;BME280;14201;43.188;24.160;2023-03-26T05:03:48;99275.81;;;11.60;73.96
26531;BME280;14201;43.188;24.160;2023-03-26T05:06:14;99297.34;;;11.81;73.77
26531;BME280;14201;43.188;24.160;2023-03-26T05:08:42;99299.50;;;11.93;72.25
26531;BME280;14201;43.188;24.160;2023-03-26T05:11:09;99284.25;;;12.07;70.37
26531;BME280;14201;43.188;24.160;2023-03-26T05:13:36;99299.97;;;12.37;69.26
26531;BME280;14201;43.188;24.160;2023-03-26T05:16:02;99291.50;;;12.46;69.21
26531;BME280;14201;43.188;24.160;2023-03-26T05:18:27;99309.84;;;12.78;68.59
26531;BME280;14201;43.188;24.160;2023-03-26T05:20:53;99316.31;;;12.92;68.68
26531;BME280;14201;43.188;24.160;2023-03-26T05:23:21;99304.75;;;13.16;66.66
26531;BME280;14201;43.188;24.160;2023-03-26T05:25:47;99293.50;;;13.18;63.95
26531;BME280;14201;43.188;24.160;2023-03-26T05:28:12;99291.81;;;13.22;64.30
26531;BME280;14201;43.188;24.160;2023-03-26T05:30:38;99296.88;;;13.14;64.64
26531;BME280;14201;43.188;24.160;2023-03-26T05:33:04;99298.50;;;13.43;63.82
26531;BME280;14201;43.188;24.160;2023-03-26T05:35:30;99303.28;;;13.61;63.81
26531;BME280;14201;43.188;24.160;2023-03-26T05:37:56;99298.75;;;13.90;63.42
26531;BME280;14201;43.188;24.160;2023-03-26T05:40:22;99295.69;;;14.09;60.22
26531;BME280;14201;43.188;24.160;2023-03-26T05:42:47;99285.56;;;14.23;59.20
26531;BME280;14201;43.188;24.160;2023-03-26T05:45:14;99287.69;;;14.41;59.00
26531;BME280;14201;43.188;24.160;2023-03-26T05:47:40;99287.84;;;14.49;58.63
26531;BME280;14201;43.188;24.160;2023-03-26T05:50:06;99291.53;;;14.57;58.58
26531;BME280;14201;43.188;24.160;2023-03-26T05:52:33;99291.63;;;14.22;58.85
26531;BME280;14201;43.188;24.160;2023-03-26T05:54:58;99271.09;;;14.42;57.33
26531;BME280;14201;43.188;24.160;2023-03-26T05:57:30;99279.72;;;14.38;56.60
26531;BME280;14201;43.188;24.160;2023-03-26T05:59:56;99291.00;;;14.73;57.50
26531;BME280;14201;43.188;24.160;2023-03-26T06:02:22;99284.03;;;14.77;56.02
26531;BME280;14201;43.188;24.160;2023-03-26T06:04:48;99281.69;;;14.89;56.16
26531;BME280;14201;43.188;24.160;2023-03-26T06:07:15;99296.97;;;15.13;56.14
26531;BME280;14201;43.188;24.160;2023-03-26T06:09:42;99288.69;;;14.89;54.87
26531;BME280;14201;43.188;24.160;2023-03-26T06:12:09;99284.19;;;14.83;54.23
26531;BME280;14201;43.188;24.160;2023-03-26T06:14:35;99297.53;;;14.95;55.28
26531;BME280;14201;43.188;24.160;2023-03-26T06:17:01;99299.84;;;14.80;55.62
26531;BME280;14201;43.188;24.160;2023-03-26T06:19:26;99294.44;;;15.16;53.69
26531;BME280;14201;43.188;24.160;2023-03-26T06:21:52;99293.28;;;15.52;53.29
26531;BME280;14201;43.188;24.160;2023-03-26T06:24:18;99301.38;;;15.66;53.06
26531;BME280;14201;43.188;24.160;2023-03-26T06:26:44;99297.69;;;16.08;52.33
26531;BME280;14201;43.188;24.160;2023-03-26T06:29:11;99287.66;;;16.44;52.87
26531;BME280;14201;43.188;24.160;2023-03-26T06:31:37;99289.66;;;16.65;50.81
26531;BME280;14201;43.188;24.160;2023-03-26T06:34:02;99289.13;;;16.89;50.45
26531;BME280;14201;43.188;24.160;2023-03-26T06:36:28;99284.09;;;17.15;48.62
26531;BME280;14201;43.188;24.160;2023-03-26T06:38:53;99289.81;;;16.79;49.74
26531;BME280;14201;43.188;24.160;2023-03-26T06:41:19;99291.09;;;17.10;49.66
26531;BME280;14201;43.188;24.160;2023-03-26T06:43:45;99295.38;;;17.00;48.42
26531;BME280;14201;43.188;24.160;2023-03-26T06:46:10;99289.50;;;17.29;48.84
26531;BME280;14201;43.188;24.160;2023-03-26T06:48:36;99290.53;;;17.46;46.62
26531;BME280;14201;43.188;24.160;2023-03-26T06:51:02;99295.03;;;17.60;46.34
26531;BME280;14201;43.188;24.160;2023-03-26T06:53:27;99293.25;;;17.52;46.04
26531;BME280;14201;43.188;24.160;2023-03-26T06:55:53;99296.50;;;17.27;45.50
26531;BME280;14201;43.188;24.160;2023-03-26T06:58:18;99288.75;;;17.39;45.91
26531;BME280;14201;43.188;24.160;2023-03-26T07:00:44;99302.84;;;17.50;45.22
26531;BME280;14201;43.188;24.160;2023-03-26T07:03:09;99290.81;;;17.79;45.40
26531;BME280;14201;43.188;24.160;2023-03-26T07:05:35;99291.94;;;18.07;46.35
26531;BME280;14201;43.188;24.160;2023-03-26T07:08:01;99288.53;;;18.26;45.39
26531;BME280;14201;43.188;24.160;2023-03-26T07:10:27;99289.50;;;18.44;45.06
26531;BME280;14201;43.188;24.160;2023-03-26T07:12:53;99297.34;;;18.30;44.65
26531;BME280;14201;43.188;24.160;2023-03-26T07:15:19;99298.25;;;18.43;43.87
26531;BME280;14201;43.188;24.160;2023-03-26T07:17:45;99288.34;;;17.97;42.13
26531;BME280;14201;43.188;24.160;2023-03-26T07:20:10;99290.13;;;18.04;44.40
26531;BME280;14201;43.188;24.160;2023-03-26T07:22:36;99287.63;;;18.27;43.51
26531;BME280;14201;43.188;24.160;2023-03-26T07:25:01;99289.47;;;18.45;43.05
26531;BME280;14201;43.188;24.160;2023-03-26T07:27:33;99290.41;;;18.57;44.25
26531;BME280;14201;43.188;24.160;2023-03-26T07:30:04;99270.28;;;18.77;43.83
26531;BME280;14201;43.188;24.160;2023-03-26T07:32:33;99274.66;;;18.69;42.14
26531;BME280;14201;43.188;24.160;2023-03-26T07:43:37;99282.72;;;19.46;41.24
26531;BME280;14201;43.188;24.160;2023-03-26T07:47:58;99273.06;;;19.68;40.63
26531;BME280;14201;43.188;24.160;2023-03-26T07:50:24;99280.13;;;19.95;40.21
26531;BME280;14201;43.188;24.160;2023-03-26T07:52:50;99276.59;;;19.93;39.73
26531;BME280;14201;43.188;24.160;2023-03-26T07:55:16;99279.22;;;20.09;39.00
26531;BME280;14201;43.188;24.160;2023-03-26T07:57:59;99280.94;;;20.16;38.39
26531;BME280;14201;43.188;24.160;2023-03-26T08:00:41;99276.53;;;20.15;38.81
26531;BME280;14201;43.188;24.160;2023-03-26T08:03:28;99280.03;;;20.24;38.07
26531;BME280;14201;43.188;24.160;2023-03-26T08:11:13;99292.44;;;19.99;38.47
26531;BME280;14201;43.188;24.160;2023-03-26T08:16:11;99289.75;;;20.10;38.12
26531;BME280;14201;43.188;24.160;2023-03-26T08:18:42;99296.81;;;20.14;37.49
26531;BME280;14201;43.188;24.160;2023-03-26T08:21:12;99290.59;;;20.37;37.00
26531;BME280;14201;43.188;24.160;2023-03-26T08:23:46;99304.63;;;20.53;37.33
26531;BME280;14201;43.188;24.160;2023-03-26T08:26:20;99309.00;;;20.75;37.14
26531;BME280;14201;43.188;24.160;2023-03-26T08:31:27;99300.03;;;21.01;37.60
26531;BME280;14201;43.188;24.160;2023-03-26T08:33:57;99304.28;;;21.33;37.56
26531;BME280;14201;43.188;24.160;2023-03-26T08:36:22;99305.03;;;21.52;36.50
26531;BME280;14201;43.188;24.160;2023-03-26T08:38:47;99308.63;;;21.46;35.75
26531;BME280;14201;43.188;24.160;2023-03-26T08:41:34;99302.22;;;21.72;34.93
26531;BME280;14201;43.188;24.160;2023-03-26T09:05:44;99294.59;;;21.22;33.88
26531;BME280;14201;43.188;24.160;2023-03-26T09:13:48;99282.78;;;21.73;35.67
26531;BME280;14201;43.188;24.160;2023-03-26T09:37:32;99262.31;;;23.33;32.74
26531;BME280;14201;43.188;24.160;2023-03-26T09:40:10;99254.22;;;23.39;32.77
26531;BME280;14201;43.188;24.160;2023-03-26T09:42:42;99252.06;;;23.63;31.80
26531;BME280;14201;43.188;24.160;2023-03-26T09:50:54;99250.03;;;23.24;31.62
26531;BME280;14201;43.188;24.160;2023-03-26T09:56:13;99230.91;;;23.56;30.97
26531;BME280;14201;43.188;24.160;2023-03-26T10:16:48;99214.06;;;23.56;28.44
26531;BME280;14201;43.188;24.160;2023-03-26T10:19:22;99211.97;;;23.75;29.24
26531;BME280;14201;43.188;24.160;2023-03-26T10:27:06;99204.88;;;23.74;28.56
26531;BME280;14201;43.188;24.160;2023-03-26T10:32:21;99201.00;;;23.92;28.56
26531;BME280;14201;43.188;24.160;2023-03-26T10:37:24;99200.16;;;23.91;27.96
26531;BME280;14201;43.188;24.160;2023-03-26T10:50:15;99170.72;;;22.96;28.05
26531;BME280;14201;43.188;24.160;2023-03-26T10:52:48;99161.41;;;23.27;28.52
26531;BME280;14201;43.188;24.160;2023-03-26T10:58:03;99168.06;;;23.99;28.83
26531;BME280;14201;43.188;24.160;2023-03-26T11:00:32;99149.84;;;24.23;28.39
26531;BME280;14201;43.188;24.160;2023-03-26T11:03:06;99165.50;;;24.36;27.31
26531;BME280;14201;43.188;24.160;2023-03-26T11:08:14;99150.94;;;24.12;25.82
26531;BME280;14201;43.188;24.160;2023-03-26T11:10:56;99143.63;;;23.80;26.66
26531;BME280;14201;43.188;24.160;2023-03-26T11:16:01;99147.38;;;24.13;26.87
26531;BME280;14201;43.188;24.160;2023-03-26T11:18:32;99146.81;;;24.40;26.85
26531;BME280;14201;43.188;24.160;2023-03-26T11:21:03;99144.22;;;24.36;26.33
26531;BME280;14201;43.188;24.160;2023-03-26T11:23:35;99146.78;;;24.41;26.64
26531;BME280;14201;43.188;24.160;2023-03-26T11:33:37;99136.97;;;24.45;27.46
26531;BME280;14201;43.188;24.160;2023-03-26T11:36:06;99138.06;;;24.33;26.14
26531;BME280;14201;43.188;24.160;2023-03-26T11:38:35;99146.84;;;24.38;26.67
26531;BME280;14201;43.188;24.160;2023-03-26T11:41:03;99139.72;;;24.38;26.82
26531;BME280;14201;43.188;24.160;2023-03-26T11:43:34;99142.28;;;24.45;27.51
26531;BME280;14201;43.188;24.160;2023-03-26T11:46:04;99118.66;;;24.29;25.84
26531;BME280;14201;43.188;24.160;2023-03-26T11:48:36;99123.09;;;23.87;27.16
26531;BME280;14201;43.188;24.160;2023-03-26T11:51:06;99124.16;;;23.78;27.30
26531;BME280;14201;43.188;24.160;2023-03-26T11:53:32;99116.81;;;23.91;27.13
26531;BME280;14201;43.188;24.160;2023-03-26T12:01:03;99077.81;;;23.43;28.07
26531;BME280;14201;43.188;24.160;2023-03-26T12:03:36;99080.31;;;23.52;27.13
26531;BME280;14201;43.188;24.160;2023-03-26T12:06:02;99088.75;;;23.73;27.03
26531;BME280;14201;43.188;24.160;2023-03-26T12:08:33;99072.91;;;23.67;27.03
26531;BME280;14201;43.188;24.160;2023-03-26T12:11:00;99066.56;;;23.75;27.04
26531;BME280;14201;43.188;24.160;2023-03-26T12:15:56;99073.19;;;23.98;27.85
26531;BME280;14201;43.188;24.160;2023-03-26T12:18:24;99066.16;;;23.95;26.81
26531;BME280;14201;43.188;24.160;2023-03-26T12:21:00;99064.81;;;23.28;27.68
26531;BME280;14201;43.188;24.160;2023-03-26T12:23:34;99066.47;;;23.35;25.99
26531;BME280;14201;43.188;24.160;2023-03-26T12:26:09;99062.63;;;23.03;27.18
26531;BME280;14201;43.188;24.160;2023-03-26T12:28:36;99064.63;;;23.38;27.81
26531;BME280;14201;43.188;24.160;2023-03-26T12:31:02;99055.47;;;23.53;28.08
26531;BME280;14201;43.188;24.160;2023-03-26T12:33:29;99050.81;;;23.63;27.70
26531;BME280;14201;43.188;24.160;2023-03-26T12:35:58;99045.50;;;23.65;28.25
26531;BME280;14201;43.188;24.160;2023-03-26T12:46:26;99037.59;;;23.62;28.13
26531;BME280;14201;43.188;24.160;2023-03-26T12:48:50;99033.81;;;23.72;27.78
26531;BME280;14201;43.188;24.160;2023-03-26T12:56:27;99020.75;;;23.61;27.72
26531;BME280;14201;43.188;24.160;2023-03-26T13:02:34;99023.06;;;23.34;28.33
26531;BME280;14201;43.188;24.160;2023-03-26T13:04:27;99014.00;;;23.45;29.10
26531;BME280;14201;43.188;24.160;2023-03-26T13:09:48;99007.84;;;23.43;28.31
26531;BME280;14201;43.188;24.160;2023-03-26T13:13:08;99001.59;;;23.44;28.35
26531;BME280;14201;43.188;24.160;2023-03-26T13:20:30;98993.00;;;23.32;28.94
26531;BME280;14201;43.188;24.160;2023-03-26T13:25:38;98999.44;;;23.21;28.37
26531;BME280;14201;43.188;24.160;2023-03-26T13:33:16;98972.72;;;23.27;29.56
26531;BME280;14201;43.188;24.160;2023-03-26T13:35:56;98973.91;;;23.10;30.32
26531;BME280;14201;43.188;24.160;2023-03-26T13:46:02;98968.63;;;23.09;29.38
26531;BME280;14201;43.188;24.160;2023-03-26T13:48:39;98965.00;;;22.65;26.45
26531;BME280;14201;43.188;24.160;2023-03-26T13:51:22;98958.19;;;22.50;28.03
26531;BME280;14201;43.188;24.160;2023-03-26T13:54:21;98963.47;;;22.51;27.10
26531;BME280;14201;43.188;24.160;2023-03-26T13:57:00;98967.13;;;22.44;27.55
26531;BME280;14201;43.188;24.160;2023-03-26T14:00:28;98970.69;;;22.43;28.33
26531;BME280;14201;43.188;24.160;2023-03-26T14:02:56;98968.03;;;22.43;27.43
26531;BME280;14201;43.188;24.160;2023-03-26T14:05:30;98967.97;;;22.46;27.97
26531;BME280;14201;43.188;24.160;2023-03-26T14:08:22;98960.75;;;22.54;29.08
26531;BME280;14201;43.188;24.160;2023-03-26T14:11:10;98960.38;;;22.25;29.35
26531;BME280;14201;43.188;24.160;2023-03-26T14:13:59;98965.56;;;22.32;29.45
26531;BME280;14201;43.188;24.160;2023-03-26T14:16:38;98965.88;;;22.11;29.69
26531;BME280;14201;43.188;24.160;2023-03-26T14:21:58;98959.66;;;22.12;29.93
26531;BME280;14201;43.188;24.160;2023-03-26T14:24:30;98947.44;;;22.00;29.81
26531;BME280;14201;43.188;24.160;2023-03-26T14:33:04;98948.63;;;21.79;30.63
26531;BME280;14201;43.188;24.160;2023-03-26T14:52:00;98930.94;;;21.13;30.97
26531;BME280;14201;43.188;24.160;2023-03-26T14:54:30;98929.19;;;21.12;31.70
26531;BME280;14201;43.188;24.160;2023-03-26T15:17:17;98922.69;;;20.61;31.31
26531;BME280;14201;43.188;24.160;2023-03-26T15:22:59;98926.22;;;20.62;30.43
26531;BME280;14201;43.188;24.160;2023-03-26T15:40:34;98938.81;;;20.32;31.76
26531;BME280;14201;43.188;24.160;2023-03-26T15:43:11;98939.72;;;20.28;31.84
26531;BME280;14201;43.188;24.160;2023-03-26T15:45:38;98936.28;;;20.17;31.58
26531;BME280;14201;43.188;24.160;2023-03-26T15:53:59;98946.03;;;20.10;32.69
26531;BME280;14201;43.188;24.160;2023-03-26T15:56:43;98946.09;;;20.01;32.06
26531;BME280;14201;43.188;24.160;2023-03-26T15:59:47;98942.59;;;19.96;32.08
26531;BME280;14201;43.188;24.160;2023-03-26T16:02:38;98938.25;;;19.87;31.99
26531;BME280;14201;43.188;24.160;2023-03-26T16:13:32;98938.50;;;19.41;33.11
26531;BME280;14201;43.188;24.160;2023-03-26T16:16:21;98936.81;;;19.26;33.36
26531;BME280;14201;43.188;24.160;2023-03-26T16:18:56;98940.34;;;19.23;33.56
26531;BME280;14201;43.188;24.160;2023-03-26T16:26:51;98943.03;;;19.08;34.35
26531;BME280;14201;43.188;24.160;2023-03-26T16:29:23;98942.16;;;19.00;34.42
26531;BME280;14201;43.188;24.160;2023-03-26T16:32:26;98950.13;;;18.86;33.73
26531;BME280;14201;43.188;24.160;2023-03-26T16:34:59;98958.06;;;18.20;35.24
26531;BME280;14201;43.188;24.160;2023-03-26T16:48:32;98965.00;;;17.62;36.41
26531;BME280;14201;43.188;24.160;2023-03-26T16:51:25;98965.00;;;17.67;36.61
26531;BME280;14201;43.188;24.160;2023-03-26T16:53:58;98967.69;;;17.85;36.45
26531;BME280;14201;43.188;24.160;2023-03-26T16:56:43;98962.44;;;17.88;37.18
26531;BME280;14201;43.188;24.160;2023-03-26T17:05:24;98969.28;;;17.39;35.84
26531;BME280;14201;43.188;24.160;2023-03-26T17:08:15;98968.00;;;16.69;37.77
26531;BME280;14201;43.188;24.160;2023-03-26T17:10:54;98955.88;;;16.83;37.51
26531;BME280;14201;43.188;24.160;2023-03-26T17:13:43;98952.38;;;16.87;38.23
26531;BME280;14201;43.188;24.160;2023-03-26T17:16:20;98970.84;;;16.95;38.18
26531;BME280;14201;43.188;24.160;2023-03-26T17:19:04;98974.34;;;16.94;37.07
26531;BME280;14201;43.188;24.160;2023-03-26T17:21:41;98981.28;;;16.84;37.31
26531;BME280;14201;43.188;24.160;2023-03-26T17:24:43;98987.94;;;16.38;40.02
26531;BME280;14201;43.188;24.160;2023-03-26T17:35:41;98979.34;;;16.63;37.67
26531;BME280;14201;43.188;24.160;2023-03-26T17:40:48;98983.75;;;16.63;38.93
26531;BME280;14201;43.188;24.160;2023-03-26T17:46:08;98981.94;;;16.52;39.11
26531;BME280;14201;43.188;24.160;2023-03-26T17:48:38;98988.31;;;15.83;42.53
26531;BME280;14201;43.188;24.160;2023-03-26T17:53:48;98989.66;;;15.50;41.58
26531;BME280;14201;43.188;24.160;2023-03-26T17:56:26;98989.66;;;15.50;43.34
26531;BME280;14201;43.188;24.160;2023-03-26T17:58:55;98986.75;;;15.27;44.42
26531;BME280;14201;43.188;24.160;2023-03-26T18:01:34;98986.84;;;15.34;44.59
26531;BME280;14201;43.188;24.160;2023-03-26T18:04:03;98996.50;;;15.39;43.62
26531;BME280;14201;43.188;24.160;2023-03-26T18:11:56;98982.47;;;15.35;43.91
26531;BME280;14201;43.188;24.160;2023-03-26T18:14:33;98979.81;;;15.32;43.37
26531;BME280;14201;43.188;24.160;2023-03-26T18:17:02;98964.81;;;15.20;44.06
26531;BME280;14201;43.188;24.160;2023-03-26T18:19:28;98969.56;;;14.83;44.57
26531;BME280;14201;43.188;24.160;2023-03-26T18:22:03;98972.16;;;14.82;44.89
26531;BME280;14201;43.188;24.160;2023-03-26T18:24:35;98974.59;;;14.71;47.59
26531;BME280;14201;43.188;24.160;2023-03-26T18:27:04;98963.19;;;14.66;46.05
26531;BME280;14201;43.188;24.160;2023-03-26T18:29:35;98969.94;;;14.53;44.98
26531;BME280;14201;43.188;24.160;2023-03-26T18:34:45;98969.75;;;13.89;46.67